Santos Dumont Airport

SBRJ · Rio de Janeiro, Brazil

METAR history SBRJ · Santos Dumont Airport

Below you see METARs of the last few days. Select a year to browse through older METARs, from the year 2007 onwards.

November 26, 2022

Time Code Weather Temp. Visibility Ceiling Wind METAR/SPECI
23:00
M
22 °C 5 km 1,200 ft 160° 160° 12 kt METAR SBRJ 270200Z 16012KT 5000 -RA BR BKN012 OVC035 22/21 Q1013
20:00
M
23 °C 10 km+ 1,000 ft 240° 240° 2 kt METAR SBJR 262300Z 24002KT 9999 BKN010 OVC050 23/22 Q1014
19:00
V
24 °C 10 km+ 6,000 ft 220° 220° 2 kt METAR SBJR 262200Z 22002KT 9999 SCT018 OVC060 24/22 Q1014
18:00
V
24 °C 10 km+ 6,000 ft 220° 220° 3 kt METAR SBJR 262100Z 22003KT 9999 FEW018 FEW030TCU OVC060 24/21 Q1013
17:00
V
25 °C 10 km+ 10,000 ft 200° 200° 4 kt METAR SBJR 262000Z 20004KT 9999 SCT018 SCT045 BKN100 25/21 Q1013
16:00
V
28 °C 10 km+ - 200° 200° 5 kt METAR SBJR 261900Z 20005KT 9999 SCT018 SCT025 FEW030TCU 28/22 Q1012
15:00
V
31 °C 10 km+ - 170° 170° 8 kt METAR SBJR 261800Z 17008KT 9999 FEW018 SCT100 31/22 Q1012
14:00
V
31 °C 10 km+ - 190° 190° 6 kt METAR SBJR 261700Z 19006KT 9999 FEW020 SCT100 31/21 Q1013
13:00
V
29 °C 10 km+ 5,000 ft 210° 210° 4 kt METAR SBJR 261600Z 21004KT 9999 FEW020 BKN050 BKN100 29/21 Q1013
12:00
V
31 °C 10 km+ 10,000 ft 190° 190° 7 kt METAR SBJR 261500Z 19007KT 9999 FEW020 SCT030 BKN100 31/21 Q1014
11:00
V
32 °C 10 km+ 10,000 ft 200° 200° 6 kt METAR SBJR 261400Z 20006KT 9999 FEW020 BKN100 32/21 Q1014
10:00
V
29 °C 10 km+ 10,000 ft 220° 220° 5 kt METAR SBJR 261300Z 22005KT 9999 FEW020 SCT040 BKN100 29/20 Q1014
09:00
V
30 °C 10 km+ - 200° 200° 4 kt METAR SBJR 261200Z 20004KT 9999 FEW020 SCT030 30/20 Q1013
08:00
V
28 °C 10 km+ 10,000 ft 310° 310° 1 kt METAR SBJR 261100Z 31001KT 9999 SCT020 SCT030 BKN100 28/22 Q1013
07:00
V
27 °C 10 km+ 10,000 ft 010° 010° 4 kt METAR SBJR 261000Z 01004KT 9999 FEW018 SCT030 BKN100 27/23 Q1012

November 25, 2022

Time Code Weather Temp. Visibility Ceiling Wind METAR/SPECI
21:00
V
22 °C 10 km+ 4,000 ft Var 000° 0 kt METAR SBJR 260000Z 00000KT 9999 FEW018 BKN040 22/21 Q1013
20:00
V
22 °C 10 km+ - 280° 280° 2 kt METAR SBJR 252300Z 28002KT 9999 SCT018 SCT025 22/21 Q1013
19:00
V
23 °C 10 km+ 3,000 ft 280° 280° 5 kt METAR SBJR 252200Z 28005KT 9999 FEW018 BKN030 23/21 Q1013
18:00
M
24 °C 10 km+ 1,800 ft 250° 250° 2 kt METAR SBJR 252100Z 25002KT 9999 BKN018 SCT035 24/21 Q1012
17:00
M
26 °C 10 km+ 2,000 ft 230° 230° 9 kt METAR SBJR 252000Z 23009KT 9999 BKN020 SCT035 26/21 Q1012
16:00
M
29 °C 10 km+ 2,000 ft 230° 230° 4 kt METAR SBJR 251900Z 23004KT 9999 BKN020 SCT070 29/22 Q1011
15:00
V
30 °C 10 km+ - 210° 210° 7 kt METAR SBJR 251800Z 21007KT 9999 SCT020 SCT070 30/23 Q1012
14:00
V
31 °C 10 km+ - 220° 220° 6 kt METAR SBJR 251700Z 22006KT 9999 SCT020 SCT080 31/23 Q1012
13:00
V
30 °C 10 km+ - 230° 230° 6 kt METAR SBJR 251600Z 23006KT 9999 SCT025 SCT050 30/22 Q1013
12:00
V
29 °C 10 km+ - 230° 230° 5 kt METAR SBJR 251500Z 23005KT 9999 SCT020 SCT040 29/23 Q1013
11:00
V
30 °C 10 km+ - 220° 220° 7 kt METAR SBJR 251400Z 22007KT 9999 SCT018 SCT040 30/22 Q1013
10:00
V
30 °C 10 km+ - 230° 230° 6 kt METAR SBJR 251300Z 23006KT 9999 FEW018 30/22 Q1013
09:00
V
30 °C 10 km+ - 230° 230° 4 kt METAR SBJR 251200Z 23004KT 9999 FEW018 30/23 Q1013
08:00
V
29 °C 10 km+ - 220° 220° 5 kt METAR SBJR 251100Z 22005KT 9999 FEW015 29/24 Q1012
07:00
V
24 °C 10 km+ - 260° 260° 2 kt METAR SBJR 251000Z 26002KT 9999 SCT015 24/23 Q1012

November 24, 2022

Time Code Weather Temp. Visibility Ceiling Wind METAR/SPECI
21:00
V
21 °C 10 km+ - Var 000° 0 kt METAR SBJR 250000Z 00000KT 9999 FEW040 SCT070 21/19 Q1012
20:00
V
21 °C 10 km+ - Var 000° 0 kt METAR SBJR 242300Z 00000KT 9999 FEW030 SCT040 21/19 Q1012
19:00
V
22 °C 10 km+ - Var 000° 0 kt METAR SBJR 242200Z 00000KT 9999 FEW030 SCT040 22/18 Q1011
18:00
V
25 °C 10 km+ - 210° 210° 3 kt METAR SBJR 242100Z 21003KT 9999 FEW030 SCT040 25/21 Q1010
17:00
V
27 °C 10 km+ 10,000 ft 210° 210° 4 kt METAR SBJR 242000Z 21004KT 9999 FEW020 SCT040 BKN100 27/21 Q1010
16:00
V
32 °C 10 km+ 10,000 ft 210° 210° 4 kt METAR SBJR 241900Z 21004KT 9999 FEW020 SCT040 BKN100 32/22 Q1010
15:00
V
30 °C 10 km+ 10,000 ft 300° 300° 1 kt METAR SBJR 241800Z 30001KT 9999 FEW020 SCT040 OVC100 30/22 Q1010
14:00
V
30 °C 10 km+ 10,000 ft 330° 330° 2 kt METAR SBJR 241700Z 33002KT 9999 FEW020 SCT040 OVC100 30/22 Q1010
13:00
V
28 °C 10 km+ 10,000 ft 120° 120° 2 kt METAR SBJR 241600Z 12002KT 9999 FEW015 SCT030 OVC100 28/22 Q1011
12:00
V
27 °C 10 km+ 10,000 ft 290° 290° 1 kt METAR SBJR 241500Z 29001KT 9999 FEW010 SCT030 OVC100 27/23 Q1012
11:00
V
24 °C 10 km+ 4,000 ft 110° 110° 6 kt METAR SBJR 241400Z 11006KT 9999 FEW010 BKN040 OVC100 24/22 Q1012
10:00
V
26 °C 10 km+ 10,000 ft 020° 020° 3 kt METAR SBJR 241300Z 02003KT 9999 SCT030 OVC100 26/24 Q1011
09:00
V
24 °C 10 km+ 8,000 ft 040° 040° 5 kt METAR SBJR 241200Z 04005KT 9999 FEW020 OVC080 24/23 Q1011
08:00
V
22 °C 10 km+ 3,000 ft 330° 330° 3 kt METAR SBJR 241100Z 33003KT 9999 FEW010 BKN030 BKN070 22/22 Q1010 RERA
07:00
V
22 °C 10 km+ 3,000 ft 060° 060° 8 kt METAR SBJR 241000Z 06008KT 9999 RA FEW008 OVC030 22/22 Q1009 RETS

We and third parties follow your internet behavior on our website with cookies. If you continue, we assume you agree with our cookie policy.